Time;durP1;ratioP1;P1;durP2;ratioP2;P2;SDS_P1;SDS_P2;PMS_P1;PMS_P2;Temp;Humidity;BMP_temperature;BMP_pressure;BME280_temperature;BME280_humidity;BME280_pressure;Samples;Min_cycle;Max_cycle;Signal;HPM_P1;HPM_P2
2023/06/29 00:00:22;;;;;;;1.15;0.52;;;;;;;15.89;63.30;101187.41;5050572;28;20045;-47
2023/06/29 00:02:49;;;;;;;3.47;0.63;;;;;;;15.89;63.20;101177.03;5050412;28;20128;-45
2023/06/29 00:05:18;;;;;;;2.58;0.60;;;;;;;15.88;63.43;101185.81;5050974;28;20507;-47
2023/06/29 00:07:45;;;;;;;1.25;0.73;;;;;;;15.84;63.36;101183.75;5049966;28;20048;-45
2023/06/29 00:10:12;;;;;;;6.03;0.82;;;;;;;15.79;63.49;101177.66;5050673;28;20490;-44
2023/06/29 00:12:42;;;;;;;2.58;0.57;;;;;;;15.73;63.72;101181.91;5050117;28;20128;-48
2023/06/29 00:15:09;;;;;;;2.72;0.40;;;;;;;15.70;63.84;101179.88;5050845;28;20085;-45
2023/06/29 00:17:36;;;;;;;2.08;0.85;;;;;;;15.69;63.78;101181.06;5050125;28;20041;-46
2023/06/29 00:20:09;;;;;;;3.80;0.88;;;;;;;15.64;63.72;101178.56;5050868;28;20037;-45
2023/06/29 00:22:40;;;;;;;3.17;0.60;;;;;;;15.59;63.89;101170.50;5050813;28;20052;-45
2023/06/29 00:25:10;;;;;;;2.03;0.40;;;;;;;15.54;64.08;101166.00;5033210;28;20045;-45
2023/06/29 00:27:37;;;;;;;2.42;0.40;;;;;;;15.52;64.13;101173.13;5048820;28;20052;-47
2023/06/29 00:30:04;;;;;;;0.82;0.60;;;;;;;15.52;64.29;101170.31;5050068;28;20429;-44
2023/06/29 00:32:31;;;;;;;2.33;0.68;;;;;;;15.49;64.45;101176.69;5050783;28;20131;-46
2023/06/29 00:34:58;;;;;;;4.63;0.90;;;;;;;15.48;64.48;101177.84;5050743;28;20411;-45
2023/06/29 00:37:25;;;;;;;1.75;0.60;;;;;;;15.46;64.68;101172.59;5050405;28;20503;-44
2023/06/29 00:39:51;;;;;;;1.23;0.60;;;;;;;15.47;64.50;101174.22;5050635;28;20116;-44
2023/06/29 00:42:18;;;;;;;1.70;0.50;;;;;;;15.39;64.73;101169.66;5050912;28;20051;-44
2023/06/29 00:44:46;;;;;;;2.13;0.43;;;;;;;15.33;64.92;101173.91;5049634;28;20087;-46
2023/06/29 00:47:13;;;;;;;2.70;0.90;;;;;;;15.32;64.82;101175.09;5040945;28;20040;-45
2023/06/29 00:49:41;;;;;;;5.85;0.90;;;;;;;15.30;64.88;101174.66;5050638;28;20059;-44
2023/06/29 00:52:08;;;;;;;4.32;1.33;;;;;;;15.25;65.09;101186.09;5050458;28;20053;-45
2023/06/29 00:54:35;;;;;;;3.33;0.80;;;;;;;15.22;65.28;101187.63;5032959;28;20092;-44
2023/06/29 00:57:01;;;;;;;5.75;1.00;;;;;;;15.22;65.18;101184.84;5049783;28;20053;-45
2023/06/29 00:59:28;;;;;;;3.13;0.80;;;;;;;15.22;65.30;101193.19;5050470;28;20053;-45
2023/06/29 01:01:55;;;;;;;6.72;0.80;;;;;;;15.23;65.46;101191.22;5052056;28;20772;-45
2023/06/29 01:04:25;;;;;;;3.75;0.52;;;;;;;15.27;65.47;101194.91;5054414;28;20057;-44
2023/06/29 01:07:06;;;;;;;2.67;0.73;;;;;;;15.27;65.48;101200.50;5054584;28;20463;-44
2023/06/29 01:09:34;;;;;;;2.30;0.77;;;;;;;15.27;65.46;101199.69;5052870;28;20052;-45
2023/06/29 01:12:03;;;;;;;4.57;0.93;;;;;;;15.25;65.61;101198.06;5035815;28;20812;-44
2023/06/29 01:14:33;;;;;;;2.65;0.70;;;;;;;15.23;65.60;101196.81;5054157;28;20148;-44
2023/06/29 01:17:02;;;;;;;1.67;0.82;;;;;;;15.19;65.67;101191.16;5053686;28;20077;-45
2023/06/29 01:19:31;;;;;;;8.27;2.10;;;;;;;15.14;65.73;101196.22;5053311;28;20033;-45
2023/06/29 01:22:03;;;;;;;4.03;1.23;;;;;;;15.14;66.08;101199.00;5053875;28;20047;-47
2023/06/29 01:24:38;;;;;;;;;;;;;;;15.11;65.92;101194.97;5054169;28;20565;-46
2023/06/29 01:27:12;;;;;;;5.13;0.73;;;;;;;15.07;65.58;101196.03;5053122;28;20015;-44
2023/06/29 01:29:39;;;;;;;2.40;0.70;;;;;;;15.04;65.80;101194.78;5053673;28;20170;-44
2023/06/29 01:32:07;;;;;;;4.85;1.23;;;;;;;15.03;65.79;101195.97;5054031;28;20139;-44
2023/06/29 01:34:36;;;;;;;3.72;0.75;;;;;;;15.03;66.04;101195.97;5053572;28;20044;-45
2023/06/29 01:37:06;;;;;;;8.32;1.20;;;;;;;15.02;66.05;101197.16;5052655;28;20410;-44
2023/06/29 01:39:49;;;;;;;5.97;0.80;;;;;;;15.02;66.26;101199.94;5051023;28;20061;-44
2023/06/29 01:42:19;;;;;;;8.38;0.70;;;;;;;15.01;66.06;101203.88;5052422;28;20563;-45
2023/06/29 01:44:47;;;;;;;2.70;1.48;;;;;;;14.95;66.33;101193.41;5041509;28;20049;-44
2023/06/29 01:47:17;;;;;;;1.83;0.70;;;;;;;14.94;66.32;101200.94;5046443;28;20073;-44
2023/06/29 01:49:44;;;;;;;4.10;1.35;;;;;;;14.92;66.48;101199.69;5053368;28;20094;-44
2023/06/29 01:52:11;;;;;;;4.28;0.70;;;;;;;14.93;66.36;101196.53;5053142;28;20511;-46
2023/06/29 01:54:38;;;;;;;1.48;0.63;;;;;;;14.94;66.31;101208.50;5052446;28;20398;-44
2023/06/29 01:57:05;;;;;;;3.83;0.63;;;;;;;14.95;66.13;101208.16;5053198;28;20040;-44
2023/06/29 01:59:32;;;;;;;3.13;0.70;;;;;;;14.89;66.21;101201.22;5053215;28;20442;-44
2023/06/29 02:01:59;;;;;;;7.90;1.13;;;;;;;14.87;66.23;101197.19;5053035;28;20065;-44
2023/06/29 02:04:26;;;;;;;4.80;0.88;;;;;;;14.82;66.45;101201.06;5052163;28;20099;-44
2023/06/29 02:06:53;;;;;;;2.47;1.10;;;;;;;14.80;66.28;101194.25;5052847;28;20486;-44
2023/06/29 02:09:20;;;;;;;4.55;0.75;;;;;;;14.76;66.52;101196.13;5052799;28;20044;-44
2023/06/29 02:11:46;;;;;;;3.60;0.80;;;;;;;14.73;66.39;101194.88;5051794;28;20056;-44
2023/06/29 02:14:13;;;;;;;5.18;0.73;;;;;;;14.71;66.48;101202.81;5052797;28;20051;-45
2023/06/29 02:16:40;;;;;;;6.32;1.52;;;;;;;14.69;66.57;101207.13;5052684;28;20059;-45
2023/06/29 02:19:06;;;;;;;3.15;1.08;;;;;;;14.64;66.50;101205.38;5053183;28;20083;-44
2023/06/29 02:21:33;;;;;;;3.35;0.80;;;;;;;14.61;66.69;101206.13;5052381;28;20078;-44
2023/06/29 02:24:00;;;;;;;2.72;0.88;;;;;;;14.57;66.80;101213.59;5052766;28;20053;-44
2023/06/29 02:26:28;;;;;;;4.47;0.88;;;;;;;14.55;66.55;101207.56;5051186;28;20083;-47
2023/06/29 02:28:55;;;;;;;2.92;0.70;;;;;;;14.54;66.56;101205.94;5051980;28;20041;-44
2023/06/29 02:31:22;;;;;;;3.78;1.00;;;;;;;14.52;66.75;101208.28;5052437;28;20088;-45
2023/06/29 02:33:49;;;;;;;8.68;1.52;;;;;;;14.52;66.62;101203.53;5052535;28;20040;-50
2023/06/29 02:36:17;;;;;;;7.03;1.13;;;;;;;14.55;66.46;101196.44;5051451;28;20136;-49
2023/06/29 02:38:44;;;;;;;4.18;0.70;;;;;;;14.49;66.67;101203.44;5051985;28;20049;-44
2023/06/29 02:41:11;;;;;;;4.57;0.70;;;;;;;14.43;66.78;101202.91;5052333;28;20036;-44
2023/06/29 02:43:38;;;;;;;3.67;0.80;;;;;;;14.42;66.73;101204.09;5052371;28;20049;-44
2023/06/29 02:46:04;;;;;;;4.22;1.08;;;;;;;14.36;66.95;101199.13;5051002;28;20037;-45
2023/06/29 02:48:40;;;;;;;4.20;0.77;;;;;;;14.27;67.01;101206.84;5043880;28;20057;-44
2023/06/29 02:51:07;;;;;;;2.63;1.02;;;;;;;14.25;66.99;101201.63;5052324;28;20037;-47
2023/06/29 02:53:34;;;;;;;6.00;0.90;;;;;;;14.22;67.22;101202.31;5051208;28;20487;-46
2023/06/29 02:56:00;;;;;;;5.45;1.65;;;;;;;14.24;67.04;101204.78;5051885;28;20041;-44
2023/06/29 02:58:27;;;;;;;4.53;0.80;;;;;;;14.23;67.31;101203.13;5051773;28;20487;-44
2023/06/29 03:00:54;;;;;;;9.82;2.08;;;;;;;14.19;67.17;101207.81;5101441;22;20393;-44
2023/06/29 03:03:20;;;;;;;4.45;1.17;;;;;;;14.19;67.28;101200.25;5073101;28;20044;-46
2023/06/29 03:05:47;;;;;;;3.80;1.00;;;;;;;14.15;67.38;101193.81;5071779;28;20451;-43
2023/06/29 03:08:14;;;;;;;4.38;1.15;;;;;;;14.11;67.55;101197.66;5071763;28;20041;-44
2023/06/29 03:10:40;;;;;;;3.35;1.02;;;;;;;14.03;67.99;101205.81;5074621;28;20056;-44
2023/06/29 03:13:08;;;;;;;4.15;0.77;;;;;;;13.98;68.03;101203.28;5071168;28;20045;-46
2023/06/29 03:15:35;;;;;;;4.35;1.02;;;;;;;13.98;68.00;101208.84;5076276;28;20044;-46
2023/06/29 03:18:02;;;;;;;3.38;1.00;;;;;;;13.98;68.30;101202.47;5081987;28;20097;-45
2023/06/29 03:20:29;;;;;;;3.05;0.82;;;;;;;13.94;68.51;101205.19;5078772;28;20047;-46
2023/06/29 03:22:56;;;;;;;4.60;0.68;;;;;;;13.91;68.56;101210.66;5091441;28;20048;-47
2023/06/29 03:25:22;;;;;;;3.38;0.68;;;;;;;13.91;68.57;101205.91;5084439;28;20119;-44
2023/06/29 03:27:49;;;;;;;5.32;1.25;;;;;;;13.88;68.68;101209.38;5053442;28;20048;-45
2023/06/29 03:30:16;;;;;;;9.43;1.63;;;;;;;13.87;68.78;101213.31;5071680;28;20123;-44
2023/06/29 03:32:42;;;;;;;3.40;1.17;;;;;;;13.82;68.87;101210.81;5070949;28;20537;-46
2023/06/29 03:35:09;;;;;;;6.03;1.00;;;;;;;13.82;68.95;101210.81;5075050;28;20564;-44
2023/06/29 03:37:36;;;;;;;6.32;0.95;;;;;;;13.81;69.27;101220.34;5076500;28;20490;-44
2023/06/29 03:40:03;;;;;;;4.32;1.10;;;;;;;13.81;69.12;101206.41;5071305;28;20048;-44
2023/06/29 03:42:29;;;;;;;3.13;0.65;;;;;;;13.76;69.36;101215.03;5086449;28;20058;-45
2023/06/29 03:44:56;;;;;;;3.38;0.47;;;;;;;13.70;69.58;101210.88;5081953;28;20139;-43
2023/06/29 03:47:23;;;;;;;4.80;0.80;;;;;;;13.68;69.86;101221.56;5078497;28;20028;-46
2023/06/29 03:49:50;;;;;;;3.63;1.13;;;;;;;13.67;69.90;101219.94;5071304;28;20068;-44
2023/06/29 03:52:17;;;;;;;5.68;0.90;;;;;;;13.59;69.80;101218.09;5081440;28;20044;-43
2023/06/29 03:54:43;;;;;;;5.20;0.95;;;;;;;13.52;70.18;101215.13;5058899;28;20642;-44
2023/06/29 03:57:10;;;;;;;3.22;0.93;;;;;;;13.50;70.32;101211.91;5084820;28;20059;-44
2023/06/29 03:59:37;;;;;;;6.75;1.10;;;;;;;13.43;70.45;101211.66;5070998;28;20064;-43
2023/06/29 04:02:04;;;;;;;2.53;0.70;;;;;;;13.37;70.64;101208.31;5073348;28;20083;-46
2023/06/29 04:04:31;;;;;;;4.40;1.67;;;;;;;13.33;70.77;101207.44;5073233;28;20047;-44
2023/06/29 04:06:57;;;;;;;4.60;0.85;;;;;;;13.29;70.82;101205.72;5075074;28;20089;-45
2023/06/29 04:09:24;;;;;;;3.55;0.70;;;;;;;13.29;71.01;101216.84;5074444;28;20413;-44
2023/06/29 04:11:52;;;;;;;8.95;1.67;;;;;;;13.25;71.35;101210.34;5070375;28;20060;-43
2023/06/29 04:14:19;;;;;;;3.60;0.88;;;;;;;13.26;71.32;101206.41;5070976;28;20053;-44
2023/06/29 04:16:45;;;;;;;8.27;1.38;;;;;;;13.26;71.54;101209.19;5084191;28;20090;-44
2023/06/29 04:19:12;;;;;;;5.72;1.27;;;;;;;13.27;71.82;101210.78;5070973;28;20502;-46
2023/06/29 04:21:42;;;;;;;5.82;1.00;;;;;;;13.26;71.62;101212.75;5071010;28;20076;-45
2023/06/29 04:24:09;;;;;;;4.13;1.00;;;;;;;13.25;71.72;101207.56;5070945;28;20139;-46
2023/06/29 04:26:38;;;;;;;2.13;1.08;;;;;;;13.28;71.68;101204.91;5055408;28;20536;-44
2023/06/29 04:29:08;;;;;;;7.40;1.30;;;;;;;13.27;71.71;101208.00;5071133;28;20048;-44
2023/06/29 04:31:35;;;;;;;3.67;1.63;;;;;;;13.27;71.78;101208.81;5082669;28;20154;-44
2023/06/29 04:34:02;;;;;;;2.47;1.13;;;;;;;13.21;71.79;101209.44;5074857;28;20585;-44
2023/06/29 04:36:30;;;;;;;8.05;1.33;;;;;;;13.12;72.38;101211.53;5070724;28;20040;-47
2023/06/29 04:38:57;;;;;;;7.35;1.50;;;;;;;13.09;72.43;101215.00;5081616;28;20052;-47
2023/06/29 04:41:31;;;;;;;5.88;1.52;;;;;;;13.07;72.37;101206.22;5089667;28;20132;-45
2023/06/29 04:44:03;;;;;;;7.97;1.58;;;;;;;13.04;72.82;101209.66;5074107;28;20115;-44
2023/06/29 04:46:32;;;;;;;6.50;1.30;;;;;;;13.02;72.70;101212.00;5076702;28;20124;-43
2023/06/29 04:49:04;;;;;;;4.95;0.80;;;;;;;13.01;72.93;101213.16;5078882;28;20555;-44
2023/06/29 04:51:38;;;;;;;5.10;1.20;;;;;;;13.01;72.91;101210.38;5074245;28;20094;-44
2023/06/29 04:54:07;;;;;;;2.78;1.58;;;;;;;12.98;72.92;101217.44;5074546;28;20044;-43
2023/06/29 04:56:34;;;;;;;4.47;1.40;;;;;;;12.93;73.28;101206.56;5074004;28;20057;-43
2023/06/29 04:59:01;;;;;;;3.58;1.15;;;;;;;12.89;73.45;101208.44;5074044;28;20041;-44
2023/06/29 05:01:27;;;;;;;11.65;2.17;;;;;;;12.89;73.30;101204.84;5070604;28;20182;-45
2023/06/29 05:03:54;;;;;;;4.13;2.13;;;;;;;12.90;73.43;101209.22;5051807;28;20044;-45
2023/06/29 05:06:21;;;;;;;3.55;0.98;;;;;;;12.90;73.31;101210.03;5045967;28;20158;-47
2023/06/29 05:08:48;;;;;;;3.95;2.03;;;;;;;12.91;73.64;101216.41;5046101;28;20198;-45
2023/06/29 05:11:14;;;;;;;8.73;2.47;;;;;;;12.92;73.60;101212.47;5047132;28;20139;-47
2023/06/29 05:13:41;;;;;;;4.30;1.23;;;;;;;12.92;73.69;101206.91;5070758;28;20115;-44
2023/06/29 05:16:09;;;;;;;5.43;1.27;;;;;;;12.93;73.75;101214.06;5077170;28;20131;-44
2023/06/29 05:18:37;;;;;;;5.45;1.58;;;;;;;12.94;73.89;101210.97;5076127;28;20163;-44
2023/06/29 05:21:04;;;;;;;6.18;1.30;;;;;;;12.92;74.02;101220.81;5073573;28;20051;-45
2023/06/29 05:23:31;;;;;;;3.08;1.17;;;;;;;12.89;73.91;101207.63;5079859;28;20054;-44
2023/06/29 05:25:58;;;;;;;4.35;1.33;;;;;;;12.89;74.03;101218.72;5079932;28;20567;-44
2023/06/29 05:28:25;;;;;;;8.45;2.40;;;;;;;12.86;74.01;101216.66;5081023;28;20036;-46
2023/06/29 05:30:52;;;;;;;7.35;1.50;;;;;;;12.88;74.11;101214.31;5092880;28;20044;-46
2023/06/29 05:33:19;;;;;;;6.18;1.50;;;;;;;12.87;74.30;101218.28;5073605;28;20047;-44
2023/06/29 05:35:48;;;;;;;6.85;1.40;;;;;;;12.90;74.46;101221.16;5088427;28;20052;-45
2023/06/29 05:38:15;;;;;;;4.00;1.30;;;;;;;12.91;74.42;101221.97;5073998;28;20041;-44
2023/06/29 05:40:41;;;;;;;3.80;1.50;;;;;;;12.94;74.20;101218.50;5073597;28;20098;-44
2023/06/29 05:43:09;;;;;;;7.38;1.58;;;;;;;12.98;74.69;101219.41;5085155;28;20082;-44
2023/06/29 05:45:36;;;;;;;3.78;1.10;;;;;;;13.03;74.29;101228.31;5086781;28;20044;-44
2023/06/29 05:48:03;;;;;;;3.47;1.40;;;;;;;13.12;74.41;101229.03;5080422;28;20041;-45
2023/06/29 05:50:30;;;;;;;4.95;1.45;;;;;;;13.22;74.58;101224.94;5073200;28;20055;-44
2023/06/29 05:52:56;;;;;;;6.60;1.30;;;;;;;13.27;74.26;101231.06;5084366;28;20090;-47
2023/06/29 05:55:24;;;;;;;6.40;1.63;;;;;;;13.29;74.47;101230.75;5073119;28;20055;-45
2023/06/29 05:57:53;;;;;;;5.40;1.10;;;;;;;13.27;74.55;101230.25;5071839;28;20074;-46
2023/06/29 06:00:20;;;;;;;4.13;1.02;;;;;;;13.29;74.45;101239.09;5072484;28;20140;-50
2023/06/29 06:02:47;;;;;;;5.10;1.23;;;;;;;13.39;74.59;101233.03;5061040;28;20133;-46
2023/06/29 06:05:14;;;;;;;5.45;1.00;;;;;;;13.43;74.60;101228.34;5045485;28;20571;-47
2023/06/29 06:07:41;;;;;;;6.93;1.42;;;;;;;13.55;74.72;101224.75;5045296;28;20058;-49
2023/06/29 06:10:08;;;;;;;4.68;1.75;;;;;;;13.72;74.42;101230.78;5045334;28;20052;-49
2023/06/29 06:12:35;;;;;;;4.22;1.00;;;;;;;13.91;74.31;101227.34;5045324;28;20048;-48
2023/06/29 06:15:02;;;;;;;5.40;1.35;;;;;;;14.10;73.95;101230.25;5044835;28;20049;-48
2023/06/29 06:17:28;;;;;;;4.05;1.13;;;;;;;14.26;73.87;101233.06;5044421;28;21307;-47
2023/06/29 06:19:55;;;;;;;2.38;0.68;;;;;;;14.38;73.84;101241.34;5044174;28;20053;-46
2023/06/29 06:22:22;;;;;;;3.72;0.80;;;;;;;14.45;73.57;101241.56;5045449;28;20142;-49
2023/06/29 06:24:49;;;;;;;6.07;1.58;;;;;;;14.49;73.46;101242.44;5054686;28;20056;-46
2023/06/29 06:27:15;;;;;;;5.07;1.23;;;;;;;14.57;73.22;101238.66;5082998;28;20044;-45
2023/06/29 06:29:43;;;;;;;3.05;1.00;;;;;;;14.54;73.21;101234.63;5089429;28;20040;-47
2023/06/29 06:32:10;;;;;;;6.25;1.20;;;;;;;14.54;73.17;101240.19;5082270;28;20048;-46
2023/06/29 06:34:37;;;;;;;6.82;1.30;;;;;;;14.59;73.08;101241.91;5072430;28;20147;-45
2023/06/29 06:37:06;;;;;;;5.57;1.73;;;;;;;14.70;73.01;101245.75;5080046;28;20074;-44
2023/06/29 06:39:32;;;;;;;9.25;2.13;;;;;;;14.75;72.81;101247.47;5058654;28;20076;-47
2023/06/29 06:41:59;;;;;;;6.85;1.10;;;;;;;14.78;72.69;101243.94;5090138;28;20045;-45
2023/06/29 06:44:26;;;;;;;3.38;0.90;;;;;;;14.78;72.73;101239.19;5073506;28;20544;-45
2023/06/29 06:46:53;;;;;;;4.25;1.13;;;;;;;14.78;72.61;101233.63;5054544;28;20053;-46
2023/06/29 06:49:21;;;;;;;7.53;1.17;;;;;;;14.88;72.53;101244.22;5071969;28;20048;-46
2023/06/29 06:51:49;;;;;;;3.38;1.27;;;;;;;15.01;72.35;101237.34;5066016;28;20043;-45
2023/06/29 06:54:16;;;;;;;5.47;1.17;;;;;;;15.07;72.19;101235.09;5086971;28;20087;-45
2023/06/29 06:56:47;;;;;;;5.70;1.17;;;;;;;15.20;72.00;101244.94;5072123;28;20480;-48
2023/06/29 06:59:14;;;;;;;6.00;1.20;;;;;;;15.33;71.82;101237.28;5072461;28;20184;-46
2023/06/29 07:01:41;;;;;;;4.22;1.20;;;;;;;15.38;71.40;101245.38;5065790;28;20093;-46
2023/06/29 07:04:08;;;;;;;5.53;1.13;;;;;;;15.34;71.33;101245.28;5078484;28;20040;-45
2023/06/29 07:06:35;;;;;;;8.35;1.40;;;;;;;15.33;71.30;101254.03;5078109;28;20652;-46
2023/06/29 07:09:03;;;;;;;7.47;1.30;;;;;;;15.29;71.13;101244.75;5071670;28;20413;-45
2023/06/29 07:11:30;;;;;;;6.15;1.20;;;;;;;15.22;71.38;101246.19;5076859;28;20043;-45
2023/06/29 07:13:57;;;;;;;3.70;1.48;;;;;;;15.27;71.55;101247.09;5077649;28;20079;-45
2023/06/29 07:16:25;;;;;;;2.85;1.10;;;;;;;15.28;71.81;101252.31;5079889;28;20084;-46
2023/06/29 07:19:07;;;;;;;3.42;0.95;;;;;;;15.37;72.28;101254.91;5071434;28;20510;-45
2023/06/29 07:21:36;;;;;;;4.18;1.00;;;;;;;15.50;73.04;101254.44;5075272;28;20040;-46
2023/06/29 07:24:04;;;;;;;3.17;1.10;;;;;;;15.62;73.20;101248.69;5046061;28;20049;-44
2023/06/29 07:26:34;;;;;;;3.50;1.00;;;;;;;15.77;73.57;101249.81;5043716;28;20049;-48
2023/06/29 07:29:03;;;;;;;7.32;1.02;;;;;;;15.93;73.70;101247.75;5026681;28;20037;-44
2023/06/29 07:31:30;;;;;;;3.58;1.02;;;;;;;16.10;73.94;101247.25;5043210;28;20105;-46
2023/06/29 07:33:57;;;;;;;3.53;0.85;;;;;;;16.39;74.64;101245.78;5043589;28;20087;-47
2023/06/29 07:36:26;;;;;;;3.72;1.00;;;;;;;16.73;74.15;101252.41;5043675;28;20082;-44
2023/06/29 07:38:53;;;;;;;7.18;1.00;;;;;;;17.00;74.23;101246.44;5044095;28;20036;-47
2023/06/29 07:41:20;;;;;;;4.03;1.02;;;;;;;17.19;73.68;101251.13;5043641;28;20040;-47
2023/06/29 07:43:55;;;;;;;6.43;2.15;;;;;;;17.49;73.09;101249.16;5042643;28;20040;-44
2023/06/29 07:46:23;;;;;;;4.53;1.30;;;;;;;17.79;72.50;101256.78;5042652;28;20498;-44
2023/06/29 07:48:51;;;;;;;1.88;0.85;;;;;;;18.18;71.87;101258.81;5043017;28;20123;-45
2023/06/29 07:51:18;;;;;;;6.70;2.03;;;;;;;18.69;70.98;101260.94;5042883;28;20555;-45
2023/06/29 07:53:45;;;;;;;9.25;1.33;;;;;;;19.22;68.92;101272.56;5042807;28;20429;-44
2023/06/29 07:56:12;;;;;;;3.72;0.75;;;;;;;19.69;66.64;101255.59;5042257;28;20040;-45
2023/06/29 07:58:38;;;;;;;5.90;1.73;;;;;;;20.29;65.02;101260.63;5025414;28;20045;-46
2023/06/29 08:01:06;;;;;;;4.88;0.90;;;;;;;20.83;62.95;101265.09;5042492;28;20049;-46
2023/06/29 08:03:33;;;;;;;3.63;0.70;;;;;;;21.36;61.05;101265.06;5025133;28;20066;-46
2023/06/29 08:06:17;;;;;;;3.92;1.50;;;;;;;21.93;59.39;101269.31;5042478;28;20126;-44
2023/06/29 08:08:46;;;;;;;4.85;1.38;;;;;;;22.41;57.28;101267.44;5043391;28;20138;-46
2023/06/29 08:11:16;;;;;;;5.95;1.85;;;;;;;22.83;55.70;101263.50;5049260;28;21672;-46
2023/06/29 08:13:43;;;;;;;4.82;1.15;;;;;;;23.20;54.35;101264.78;5049953;28;20064;-47
2023/06/29 08:16:10;;;;;;;4.30;1.00;;;;;;;23.53;52.79;101262.03;5050004;28;21255;-47
2023/06/29 08:18:37;;;;;;;3.88;1.40;;;;;;;23.71;51.66;101252.53;5049537;28;20060;-45
2023/06/29 08:21:04;;;;;;;6.32;1.33;;;;;;;24.08;50.37;101258.13;5049133;28;20047;-49
2023/06/29 08:23:32;;;;;;;4.35;0.98;;;;;;;24.45;49.03;101241.03;5049671;28;20119;-46
2023/06/29 08:25:59;;;;;;;5.88;1.00;;;;;;;24.85;48.43;101249.69;5030174;28;20058;-46
2023/06/29 08:28:26;;;;;;;4.05;1.10;;;;;;;25.06;47.33;101249.31;5062695;28;20047;-45
2023/06/29 08:30:52;;;;;;;4.15;1.60;;;;;;;25.17;46.62;101249.94;5083723;28;20048;-44
2023/06/29 08:33:20;;;;;;;5.80;1.42;;;;;;;25.28;45.86;101251.31;5077779;28;20120;-43
2023/06/29 08:35:47;;;;;;;4.38;0.75;;;;;;;25.30;45.30;101248.06;5060052;28;20048;-47
2023/06/29 08:38:13;;;;;;;2.55;1.00;;;;;;;25.54;44.97;101252.50;5097821;28;20044;-47
2023/06/29 08:40:44;;;;;;;4.78;1.35;;;;;;;25.82;44.38;101251.88;5097414;28;20040;-44
2023/06/29 08:43:15;;;;;;;1.90;0.80;;;;;;;26.14;43.65;101256.91;5077631;28;20052;-44
2023/06/29 08:45:42;;;;;;;5.13;0.95;;;;;;;26.27;42.54;101260.66;5079947;28;20046;-44
2023/06/29 08:48:12;;;;;;;4.75;1.15;;;;;;;26.47;41.80;101257.78;5085970;28;20119;-43
2023/06/29 08:50:45;;;;;;;4.20;1.17;;;;;;;26.49;41.71;101255.28;5085376;28;20044;-43
2023/06/29 08:53:13;;;;;;;5.80;1.10;;;;;;;25.99;41.48;101256.41;5087677;28;20143;-46
2023/06/29 08:55:41;;;;;;;3.88;1.10;;;;;;;25.66;41.83;101254.66;5085487;28;20036;-48
2023/06/29 08:58:08;;;;;;;2.95;0.80;;;;;;;25.05;42.21;101242.03;5080667;28;20067;-48
2023/06/29 09:00:37;;;;;;;2.95;0.90;;;;;;;24.74;42.69;101239.31;5079630;28;20500;-44
2023/06/29 09:03:05;;;;;;;2.55;0.98;;;;;;;24.25;43.03;101236.50;5057486;28;20049;-44
2023/06/29 09:05:34;;;;;;;4.95;1.17;;;;;;;23.27;43.84;101237.25;5058453;28;20079;-44
2023/06/29 09:08:02;;;;;;;5.88;1.35;;;;;;;22.76;45.04;101243.00;5069130;28;20109;-44
2023/06/29 09:10:29;;;;;;;3.00;1.00;;;;;;;23.49;44.95;101241.47;5058345;28;20610;-43
2023/06/29 09:12:55;;;;;;;8.27;1.42;;;;;;;23.81;44.20;101234.63;5066687;28;20056;-46
2023/06/29 09:15:25;;;;;;;5.53;1.63;;;;;;;23.77;44.31;101236.72;5066018;28;20135;-44
2023/06/29 09:17:56;;;;;;;5.25;1.00;;;;;;;23.58;43.95;101236.13;5064357;28;20037;-43
2023/06/29 09:20:25;;;;;;;5.88;1.05;;;;;;;22.89;43.83;101239.28;5057517;28;20166;-44
2023/06/29 09:22:52;;;;;;;2.30;0.82;;;;;;;22.27;44.54;101233.66;5052973;28;20107;-45
2023/06/29 09:25:19;;;;;;;7.45;1.20;;;;;;;22.80;44.56;101229.66;5053683;28;20045;-43
2023/06/29 09:28:01;;;;;;;2.17;0.63;;;;;;;23.45;43.33;101231.44;5067269;28;20080;-45
2023/06/29 09:30:35;;;;;;;8.15;1.17;;;;;;;22.99;43.39;101231.91;5053652;28;20044;-43
2023/06/29 09:33:07;;;;;;;5.30;0.90;;;;;;;22.97;43.73;101223.06;5066330;28;20422;-44
2023/06/29 09:35:36;;;;;;;1.13;0.57;;;;;;;23.01;42.56;101224.63;5057717;28;20045;-43
2023/06/29 09:38:03;;;;;;;3.65;1.88;;;;;;;23.05;42.45;101224.59;5059186;28;20429;-47
2023/06/29 09:40:30;;;;;;;4.13;0.85;;;;;;;22.57;42.52;101226.59;5060865;28;20172;-44
2023/06/29 09:43:01;;;;;;;3.50;1.00;;;;;;;22.03;43.31;101231.03;5053378;28;20494;-44
2023/06/29 09:45:30;;;;;;;4.40;0.70;;;;;;;21.35;44.23;101218.38;5056015;28;20570;-44
2023/06/29 09:47:57;;;;;;;2.60;1.10;;;;;;;20.74;45.12;101231.75;5059772;28;20045;-44
2023/06/29 09:50:27;;;;;;;3.78;0.77;;;;;;;20.26;46.01;101214.44;5058828;28;20041;-45
2023/06/29 09:52:55;;;;;;;4.25;1.48;;;;;;;19.90;47.12;101207.91;5053558;28;20067;-45
2023/06/29 09:55:29;;;;;;;2.15;0.70;;;;;;;19.65;48.40;101212.63;5043727;28;20105;-43
2023/06/29 09:57:57;;;;;;;5.30;1.05;;;;;;;19.48;48.83;101223.81;5061933;28;20057;-44
2023/06/29 10:00:27;;;;;;;4.78;0.88;;;;;;;19.39;49.29;101215.72;5071073;28;20060;-45
2023/06/29 10:02:55;;;;;;;5.18;0.85;;;;;;;19.37;49.56;101213.31;5072364;28;20075;-43
2023/06/29 10:05:22;;;;;;;8.80;2.08;;;;;;;19.34;49.76;101207.66;5072985;28;20048;-43
2023/06/29 10:07:53;;;;;;;6.80;1.05;;;;;;;19.49;49.69;101208.53;5080681;28;20052;-44
2023/06/29 10:10:23;;;;;;;5.55;1.63;;;;;;;19.67;49.73;101207.41;5073442;28;20087;-45
2023/06/29 10:12:55;;;;;;;2.22;0.70;;;;;;;19.79;49.20;101197.84;5084209;28;20071;-43
2023/06/29 10:15:24;;;;;;;;;;;;;;;19.81;49.28;101203.84;5078602;28;20055;-43
2023/06/29 10:18:26;;;;;;;7.43;1.10;;;;;;;20.09;49.05;101208.75;5073402;28;19931;-43
2023/06/29 10:20:53;;;;;;;5.38;1.30;;;;;;;20.37;49.03;101203.19;5055942;28;20590;-43
2023/06/29 10:23:22;;;;;;;8.63;1.55;;;;;;;20.46;48.71;101206.44;5084743;28;20072;-43
2023/06/29 10:25:53;;;;;;;3.35;1.20;;;;;;;20.26;48.54;101208.81;5074645;28;20064;-44
2023/06/29 10:28:21;;;;;;;4.40;1.30;;;;;;;20.05;48.56;101197.50;5072745;28;20040;-43
2023/06/29 10:30:50;;;;;;;4.82;1.20;;;;;;;19.85;49.20;101202.69;5072788;28;20062;-44
2023/06/29 10:33:22;;;;;;;6.63;0.85;;;;;;;19.64;50.28;101197.00;5076978;28;20037;-44
2023/06/29 10:36:02;;;;;;;3.83;1.13;;;;;;;19.42;51.15;101209.34;5082660;28;20040;-43
2023/06/29 10:38:33;;;;;;;4.57;1.27;;;;;;;19.39;51.50;101190.47;5081418;28;20086;-43
2023/06/29 10:41:00;;;;;;;4.90;0.90;;;;;;;19.37;51.28;101195.63;5084111;28;20147;-43
2023/06/29 10:43:28;;;;;;;2.20;0.80;;;;;;;19.54;51.17;101194.94;5079712;28;20043;-43
2023/06/29 10:45:54;;;;;;;3.25;0.88;;;;;;;19.76;51.06;101199.44;5077509;28;20048;-43
2023/06/29 10:48:21;;;;;;;3.25;0.60;;;;;;;19.97;50.70;101195.88;5072299;28;20086;-43
2023/06/29 10:51:08;;;;;;;4.40;0.80;;;;;;;19.95;50.08;101198.28;5085327;28;20040;-43
2023/06/29 10:53:35;;;;;;;4.70;0.98;;;;;;;19.78;50.39;101196.22;5072579;28;20044;-43
2023/06/29 10:56:02;;;;;;;5.22;0.93;;;;;;;19.60;50.34;101192.53;5072172;28;20082;-43
2023/06/29 10:58:53;;;;;;;3.00;0.75;;;;;;;19.39;49.42;101194.06;5072320;28;20044;-43
2023/06/29 11:01:20;;;;;;;2.28;0.63;;;;;;;19.34;50.07;101193.63;5072012;28;20131;-43
2023/06/29 11:03:47;;;;;;;1.73;1.00;;;;;;;19.55;48.66;101187.31;5075882;28;20048;-44
2023/06/29 11:06:14;;;;;;;4.28;0.90;;;;;;;19.73;48.89;101186.19;5080154;28;20048;-43
2023/06/29 11:09:11;;;;;;;3.63;0.63;;;;;;;19.88;48.29;101187.03;5064699;28;20036;-43
2023/06/29 11:11:39;;;;;;;3.83;0.90;;;;;;;19.82;48.23;101177.38;5092438;28;20047;-43
2023/06/29 11:14:06;;;;;;;3.60;0.98;;;;;;;19.91;48.11;101180.59;5085271;28;20214;-44
2023/06/29 11:16:34;;;;;;;2.65;0.63;;;;;;;20.22;48.11;101181.88;5072150;28;20044;-43
2023/06/29 11:19:02;;;;;;;3.67;0.77;;;;;;;20.47;47.36;101175.06;5071700;28;20091;-43
2023/06/29 11:21:29;;;;;;;1.50;0.65;;;;;;;20.62;47.62;101175.88;5075558;28;20040;-43
2023/06/29 11:23:56;;;;;;;4.68;1.27;;;;;;;20.84;47.27;101177.44;5081659;28;20048;-43
2023/06/29 11:26:23;;;;;;;2.00;0.93;;;;;;;20.99;47.40;101173.41;5077527;28;20091;-45
2023/06/29 11:28:51;;;;;;;5.88;1.10;;;;;;;21.20;47.06;101170.56;5079998;28;20036;-44
2023/06/29 11:31:19;;;;;;;3.40;0.80;;;;;;;21.38;46.83;101176.13;5072047;28;20075;-43